sensor_id;sensor_type;location;lat;lon;timestamp;P1;durP1;ratioP1;P2;durP2;ratioP2
30970;SDS011;17651;52.262;10.498;2023-04-15T00:00:12;4.10;;;3.63;;
30970;SDS011;17651;52.262;10.498;2023-04-15T00:02:24;4.53;;;3.95;;
30970;SDS011;17651;52.262;10.498;2023-04-15T00:04:35;4.93;;;3.60;;
30970;SDS011;17651;52.262;10.498;2023-04-15T00:06:50;5.50;;;4.18;;
30970;SDS011;17651;52.262;10.498;2023-04-15T00:09:04;5.68;;;4.07;;
30970;SDS011;17651;52.262;10.498;2023-04-15T00:11:16;4.13;;;3.72;;
30970;SDS011;17651;52.262;10.498;2023-04-15T00:13:27;4.82;;;4.10;;
30970;SDS011;17651;52.262;10.498;2023-04-15T00:15:38;4.38;;;3.83;;
30970;SDS011;17651;52.262;10.498;2023-04-15T00:17:49;4.78;;;4.20;;
30970;SDS011;17651;52.262;10.498;2023-04-15T00:20:01;7.32;;;4.68;;
30970;SDS011;17651;52.262;10.498;2023-04-15T00:22:13;6.38;;;4.15;;
30970;SDS011;17651;52.262;10.498;2023-04-15T00:24:24;6.22;;;4.68;;
30970;SDS011;17651;52.262;10.498;2023-04-15T00:26:35;5.00;;;4.28;;
30970;SDS011;17651;52.262;10.498;2023-04-15T00:28:46;5.75;;;4.43;;
30970;SDS011;17651;52.262;10.498;2023-04-15T00:30:57;6.00;;;4.15;;
30970;SDS011;17651;52.262;10.498;2023-04-15T00:33:09;5.82;;;4.78;;
30970;SDS011;17651;52.262;10.498;2023-04-15T00:35:20;5.47;;;4.35;;
30970;SDS011;17651;52.262;10.498;2023-04-15T00:37:32;8.70;;;5.07;;
30970;SDS011;17651;52.262;10.498;2023-04-15T00:39:44;6.65;;;4.93;;
30970;SDS011;17651;52.262;10.498;2023-04-15T00:41:55;9.32;;;6.13;;
30970;SDS011;17651;52.262;10.498;2023-04-15T00:44:07;6.80;;;5.65;;
30970;SDS011;17651;52.262;10.498;2023-04-15T00:46:18;7.22;;;5.55;;
30970;SDS011;17651;52.262;10.498;2023-04-15T00:48:30;7.18;;;5.53;;
30970;SDS011;17651;52.262;10.498;2023-04-15T00:50:41;6.70;;;5.22;;
30970;SDS011;17651;52.262;10.498;2023-04-15T00:52:52;8.07;;;6.15;;
30970;SDS011;17651;52.262;10.498;2023-04-15T00:55:04;8.82;;;5.88;;
30970;SDS011;17651;52.262;10.498;2023-04-15T00:57:15;9.23;;;6.00;;
30970;SDS011;17651;52.262;10.498;2023-04-15T00:59:27;8.07;;;6.13;;
30970;SDS011;17651;52.262;10.498;2023-04-15T01:01:38;6.65;;;5.40;;
30970;SDS011;17651;52.262;10.498;2023-04-15T01:03:51;7.43;;;5.53;;
30970;SDS011;17651;52.262;10.498;2023-04-15T01:06:02;7.72;;;5.60;;
30970;SDS011;17651;52.262;10.498;2023-04-15T01:08:14;7.68;;;5.60;;
30970;SDS011;17651;52.262;10.498;2023-04-15T01:10:25;9.80;;;5.70;;
30970;SDS011;17651;52.262;10.498;2023-04-15T01:12:36;7.38;;;5.60;;
30970;SDS011;17651;52.262;10.498;2023-04-15T01:14:48;9.80;;;6.15;;
30970;SDS011;17651;52.262;10.498;2023-04-15T01:17:00;7.25;;;5.43;;
30970;SDS011;17651;52.262;10.498;2023-04-15T01:19:11;9.57;;;6.85;;
30970;SDS011;17651;52.262;10.498;2023-04-15T01:21:24;7.60;;;5.15;;
30970;SDS011;17651;52.262;10.498;2023-04-15T01:23:36;7.82;;;5.85;;
30970;SDS011;17651;52.262;10.498;2023-04-15T01:25:48;8.15;;;6.18;;
30970;SDS011;17651;52.262;10.498;2023-04-15T01:28:00;7.15;;;5.80;;
30970;SDS011;17651;52.262;10.498;2023-04-15T01:30:11;9.70;;;6.88;;
30970;SDS011;17651;52.262;10.498;2023-04-15T01:32:22;9.13;;;6.43;;
30970;SDS011;17651;52.262;10.498;2023-04-15T01:34:35;9.52;;;7.22;;
30970;SDS011;17651;52.262;10.498;2023-04-15T01:36:46;9.48;;;7.13;;
30970;SDS011;17651;52.262;10.498;2023-04-15T01:38:57;10.73;;;6.90;;
30970;SDS011;17651;52.262;10.498;2023-04-15T01:41:08;10.63;;;6.95;;
30970;SDS011;17651;52.262;10.498;2023-04-15T01:43:20;10.10;;;7.28;;
30970;SDS011;17651;52.262;10.498;2023-04-15T01:45:31;12.55;;;7.28;;
30970;SDS011;17651;52.262;10.498;2023-04-15T01:47:42;10.48;;;7.35;;
30970;SDS011;17651;52.262;10.498;2023-04-15T01:49:53;9.05;;;6.85;;
30970;SDS011;17651;52.262;10.498;2023-04-15T01:52:05;8.82;;;6.57;;
30970;SDS011;17651;52.262;10.498;2023-04-15T01:54:17;9.95;;;6.90;;
30970;SDS011;17651;52.262;10.498;2023-04-15T01:56:28;11.98;;;7.88;;
30970;SDS011;17651;52.262;10.498;2023-04-15T01:58:39;13.05;;;7.93;;
30970;SDS011;17651;52.262;10.498;2023-04-15T02:00:50;10.32;;;6.88;;
30970;SDS011;17651;52.262;10.498;2023-04-15T02:03:01;9.98;;;7.40;;
30970;SDS011;17651;52.262;10.498;2023-04-15T02:05:13;9.10;;;6.55;;
30970;SDS011;17651;52.262;10.498;2023-04-15T02:07:30;7.82;;;6.28;;
30970;SDS011;17651;52.262;10.498;2023-04-15T02:09:41;9.73;;;7.55;;
30970;SDS011;17651;52.262;10.498;2023-04-15T02:11:52;9.95;;;7.65;;
30970;SDS011;17651;52.262;10.498;2023-04-15T02:14:03;11.57;;;8.38;;
30970;SDS011;17651;52.262;10.498;2023-04-15T02:16:18;11.23;;;8.38;;
30970;SDS011;17651;52.262;10.498;2023-04-15T02:18:30;12.00;;;7.85;;
30970;SDS011;17651;52.262;10.498;2023-04-15T02:20:41;10.48;;;7.15;;
30970;SDS011;17651;52.262;10.498;2023-04-15T02:22:56;8.77;;;6.72;;
30970;SDS011;17651;52.262;10.498;2023-04-15T02:25:07;11.85;;;7.45;;
30970;SDS011;17651;52.262;10.498;2023-04-15T02:27:18;12.60;;;8.27;;
30970;SDS011;17651;52.262;10.498;2023-04-15T02:29:30;13.50;;;7.55;;
30970;SDS011;17651;52.262;10.498;2023-04-15T02:31:42;9.65;;;6.78;;
30970;SDS011;17651;52.262;10.498;2023-04-15T02:33:54;12.63;;;7.57;;
30970;SDS011;17651;52.262;10.498;2023-04-15T02:36:05;10.13;;;7.70;;
30970;SDS011;17651;52.262;10.498;2023-04-15T02:38:17;13.18;;;9.30;;
30970;SDS011;17651;52.262;10.498;2023-04-15T02:40:28;11.73;;;8.18;;
30970;SDS011;17651;52.262;10.498;2023-04-15T02:42:39;11.18;;;8.43;;
30970;SDS011;17651;52.262;10.498;2023-04-15T02:44:54;11.07;;;8.13;;
30970;SDS011;17651;52.262;10.498;2023-04-15T02:47:07;12.00;;;8.52;;
30970;SDS011;17651;52.262;10.498;2023-04-15T02:49:20;12.13;;;8.88;;
30970;SDS011;17651;52.262;10.498;2023-04-15T02:51:32;12.38;;;7.97;;
30970;SDS011;17651;52.262;10.498;2023-04-15T02:53:43;11.82;;;8.48;;
30970;SDS011;17651;52.262;10.498;2023-04-15T02:55:54;13.05;;;8.90;;
30970;SDS011;17651;52.262;10.498;2023-04-15T02:58:05;11.18;;;7.82;;
30970;SDS011;17651;52.262;10.498;2023-04-15T03:00:17;11.85;;;8.73;;
30970;SDS011;17651;52.262;10.498;2023-04-15T03:02:34;14.90;;;8.68;;
30970;SDS011;17651;52.262;10.498;2023-04-15T03:04:46;14.35;;;9.13;;
30970;SDS011;17651;52.262;10.498;2023-04-15T03:06:57;14.07;;;9.50;;
30970;SDS011;17651;52.262;10.498;2023-04-15T03:09:10;16.65;;;9.98;;
30970;SDS011;17651;52.262;10.498;2023-04-15T03:11:22;14.85;;;9.32;;
30970;SDS011;17651;52.262;10.498;2023-04-15T03:13:34;14.85;;;9.77;;
30970;SDS011;17651;52.262;10.498;2023-04-15T03:15:53;12.67;;;8.77;;
30970;SDS011;17651;52.262;10.498;2023-04-15T03:18:06;20.00;;;11.38;;
30970;SDS011;17651;52.262;10.498;2023-04-15T03:20:18;14.43;;;9.70;;
30970;SDS011;17651;52.262;10.498;2023-04-15T03:22:31;17.33;;;9.70;;
30970;SDS011;17651;52.262;10.498;2023-04-15T03:24:42;17.00;;;11.07;;
30970;SDS011;17651;52.262;10.498;2023-04-15T03:26:57;19.70;;;11.43;;
30970;SDS011;17651;52.262;10.498;2023-04-15T03:29:08;16.83;;;10.45;;
30970;SDS011;17651;52.262;10.498;2023-04-15T03:31:20;16.83;;;10.98;;
30970;SDS011;17651;52.262;10.498;2023-04-15T03:33:31;17.17;;;10.93;;
30970;SDS011;17651;52.262;10.498;2023-04-15T03:35:42;19.65;;;10.43;;
30970;SDS011;17651;52.262;10.498;2023-04-15T03:37:53;19.55;;;10.25;;
30970;SDS011;17651;52.262;10.498;2023-04-15T03:40:04;17.20;;;10.52;;
30970;SDS011;17651;52.262;10.498;2023-04-15T03:42:16;20.25;;;11.38;;
30970;SDS011;17651;52.262;10.498;2023-04-15T03:44:27;16.65;;;10.45;;
30970;SDS011;17651;52.262;10.498;2023-04-15T03:46:38;18.38;;;11.57;;
30970;SDS011;17651;52.262;10.498;2023-04-15T03:48:50;14.88;;;9.98;;
30970;SDS011;17651;52.262;10.498;2023-04-15T03:51:01;16.30;;;11.00;;
30970;SDS011;17651;52.262;10.498;2023-04-15T03:53:12;17.63;;;10.55;;
30970;SDS011;17651;52.262;10.498;2023-04-15T03:55:23;15.95;;;10.10;;
30970;SDS011;17651;52.262;10.498;2023-04-15T03:57:34;16.25;;;9.90;;
30970;SDS011;17651;52.262;10.498;2023-04-15T03:59:48;15.25;;;9.95;;
30970;SDS011;17651;52.262;10.498;2023-04-15T04:01:59;17.63;;;10.18;;
30970;SDS011;17651;52.262;10.498;2023-04-15T04:04:10;16.90;;;10.00;;
30970;SDS011;17651;52.262;10.498;2023-04-15T04:06:21;16.90;;;10.30;;
30970;SDS011;17651;52.262;10.498;2023-04-15T04:08:32;14.40;;;9.23;;
30970;SDS011;17651;52.262;10.498;2023-04-15T04:10:43;16.00;;;10.45;;
30970;SDS011;17651;52.262;10.498;2023-04-15T04:12:55;18.02;;;10.20;;
30970;SDS011;17651;52.262;10.498;2023-04-15T04:15:06;17.02;;;10.27;;
30970;SDS011;17651;52.262;10.498;2023-04-15T04:17:17;16.85;;;9.68;;
30970;SDS011;17651;52.262;10.498;2023-04-15T04:19:28;16.15;;;10.65;;
30970;SDS011;17651;52.262;10.498;2023-04-15T04:21:39;15.48;;;10.38;;
30970;SDS011;17651;52.262;10.498;2023-04-15T04:23:50;18.58;;;10.10;;
30970;SDS011;17651;52.262;10.498;2023-04-15T04:26:01;15.60;;;10.23;;
30970;SDS011;17651;52.262;10.498;2023-04-15T04:28:12;19.63;;;12.18;;
30970;SDS011;17651;52.262;10.498;2023-04-15T04:30:23;16.15;;;10.40;;
30970;SDS011;17651;52.262;10.498;2023-04-15T04:32:35;14.50;;;9.68;;
30970;SDS011;17651;52.262;10.498;2023-04-15T04:34:46;15.18;;;10.43;;
30970;SDS011;17651;52.262;10.498;2023-04-15T04:36:57;17.70;;;10.23;;
30970;SDS011;17651;52.262;10.498;2023-04-15T04:39:08;18.92;;;11.38;;
30970;SDS011;17651;52.262;10.498;2023-04-15T04:41:19;18.92;;;11.77;;
30970;SDS011;17651;52.262;10.498;2023-04-15T04:43:30;17.70;;;10.13;;
30970;SDS011;17651;52.262;10.498;2023-04-15T04:45:41;15.75;;;10.75;;
30970;SDS011;17651;52.262;10.498;2023-04-15T04:47:52;18.15;;;10.65;;
30970;SDS011;17651;52.262;10.498;2023-04-15T04:50:04;16.17;;;10.10;;
30970;SDS011;17651;52.262;10.498;2023-04-15T04:52:15;15.70;;;9.68;;
30970;SDS011;17651;52.262;10.498;2023-04-15T04:54:26;15.88;;;10.43;;
30970;SDS011;17651;52.262;10.498;2023-04-15T04:56:38;15.88;;;9.98;;
30970;SDS011;17651;52.262;10.498;2023-04-15T04:58:49;16.35;;;10.35;;
30970;SDS011;17651;52.262;10.498;2023-04-15T05:01:00;15.25;;;9.60;;
30970;SDS011;17651;52.262;10.498;2023-04-15T05:03:12;15.85;;;9.65;;
30970;SDS011;17651;52.262;10.498;2023-04-15T05:05:23;15.65;;;10.10;;
30970;SDS011;17651;52.262;10.498;2023-04-15T05:07:34;14.20;;;10.23;;
30970;SDS011;17651;52.262;10.498;2023-04-15T05:09:46;16.65;;;10.35;;
30970;SDS011;17651;52.262;10.498;2023-04-15T05:11:57;16.75;;;10.10;;
30970;SDS011;17651;52.262;10.498;2023-04-15T05:14:08;14.35;;;9.50;;
30970;SDS011;17651;52.262;10.498;2023-04-15T05:16:19;15.60;;;10.20;;
30970;SDS011;17651;52.262;10.498;2023-04-15T05:18:30;19.58;;;10.75;;
30970;SDS011;17651;52.262;10.498;2023-04-15T05:20:41;14.82;;;9.98;;
30970;SDS011;17651;52.262;10.498;2023-04-15T05:22:52;17.17;;;10.60;;
30970;SDS011;17651;52.262;10.498;2023-04-15T05:25:04;18.83;;;11.23;;
30970;SDS011;17651;52.262;10.498;2023-04-15T05:27:15;15.45;;;10.25;;
30970;SDS011;17651;52.262;10.498;2023-04-15T05:29:26;15.07;;;9.45;;
30970;SDS011;17651;52.262;10.498;2023-04-15T05:31:37;16.00;;;10.55;;
30970;SDS011;17651;52.262;10.498;2023-04-15T05:33:48;14.63;;;9.23;;
30970;SDS011;17651;52.262;10.498;2023-04-15T05:35:59;14.32;;;9.15;;
30970;SDS011;17651;52.262;10.498;2023-04-15T05:38:10;14.32;;;9.18;;
30970;SDS011;17651;52.262;10.498;2023-04-15T05:40:21;13.88;;;9.57;;
30970;SDS011;17651;52.262;10.498;2023-04-15T05:42:33;15.30;;;9.65;;
30970;SDS011;17651;52.262;10.498;2023-04-15T05:44:45;15.05;;;10.02;;
30970;SDS011;17651;52.262;10.498;2023-04-15T05:46:56;12.93;;;8.60;;
30970;SDS011;17651;52.262;10.498;2023-04-15T05:49:07;14.75;;;9.00;;
30970;SDS011;17651;52.262;10.498;2023-04-15T05:51:18;12.02;;;8.43;;
30970;SDS011;17651;52.262;10.498;2023-04-15T05:53:29;13.75;;;8.63;;
30970;SDS011;17651;52.262;10.498;2023-04-15T05:55:41;13.68;;;9.23;;
30970;SDS011;17651;52.262;10.498;2023-04-15T05:57:52;11.75;;;8.48;;
30970;SDS011;17651;52.262;10.498;2023-04-15T06:00:03;13.70;;;9.57;;
30970;SDS011;17651;52.262;10.498;2023-04-15T06:02:19;12.32;;;9.10;;
30970;SDS011;17651;52.262;10.498;2023-04-15T06:04:31;12.25;;;8.65;;
30970;SDS011;17651;52.262;10.498;2023-04-15T06:06:42;11.45;;;8.18;;
30970;SDS011;17651;52.262;10.498;2023-04-15T06:08:53;12.57;;;8.55;;
30970;SDS011;17651;52.262;10.498;2023-04-15T06:11:04;13.25;;;8.38;;
30970;SDS011;17651;52.262;10.498;2023-04-15T06:13:16;12.85;;;8.35;;
30970;SDS011;17651;52.262;10.498;2023-04-15T06:15:27;13.40;;;8.90;;
30970;SDS011;17651;52.262;10.498;2023-04-15T06:17:38;13.63;;;9.70;;
30970;SDS011;17651;52.262;10.498;2023-04-15T06:19:49;13.43;;;9.30;;
30970;SDS011;17651;52.262;10.498;2023-04-15T06:22:04;11.88;;;8.90;;
30970;SDS011;17651;52.262;10.498;2023-04-15T06:24:16;12.13;;;8.73;;
30970;SDS011;17651;52.262;10.498;2023-04-15T06:26:27;12.80;;;8.35;;
30970;SDS011;17651;52.262;10.498;2023-04-15T06:28:38;13.95;;;9.40;;
30970;SDS011;17651;52.262;10.498;2023-04-15T06:30:49;13.20;;;8.68;;
30970;SDS011;17651;52.262;10.498;2023-04-15T06:33:00;13.95;;;9.13;;
30970;SDS011;17651;52.262;10.498;2023-04-15T06:35:15;16.10;;;10.15;;
30970;SDS011;17651;52.262;10.498;2023-04-15T06:37:26;15.07;;;9.18;;
30970;SDS011;17651;52.262;10.498;2023-04-15T06:39:37;15.30;;;10.48;;
30970;SDS011;17651;52.262;10.498;2023-04-15T06:41:49;12.60;;;9.20;;
30970;SDS011;17651;52.262;10.498;2023-04-15T06:44:01;14.35;;;9.30;;
30970;SDS011;17651;52.262;10.498;2023-04-15T06:46:13;13.40;;;9.60;;
30970;SDS011;17651;52.262;10.498;2023-04-15T06:48:24;13.88;;;9.90;;
30970;SDS011;17651;52.262;10.498;2023-04-15T06:50:35;13.40;;;9.50;;
30970;SDS011;17651;52.262;10.498;2023-04-15T06:52:46;14.45;;;9.40;;
30970;SDS011;17651;52.262;10.498;2023-04-15T06:54:57;12.75;;;8.98;;
30970;SDS011;17651;52.262;10.498;2023-04-15T06:57:08;13.20;;;8.95;;
30970;SDS011;17651;52.262;10.498;2023-04-15T06:59:20;12.73;;;8.18;;
30970;SDS011;17651;52.262;10.498;2023-04-15T07:01:31;13.70;;;9.07;;
30970;SDS011;17651;52.262;10.498;2023-04-15T07:03:42;14.38;;;8.80;;
30970;SDS011;17651;52.262;10.498;2023-04-15T07:05:53;10.98;;;7.68;;
30970;SDS011;17651;52.262;10.498;2023-04-15T07:08:04;13.93;;;8.38;;
30970;SDS011;17651;52.262;10.498;2023-04-15T07:10:15;12.35;;;7.75;;
30970;SDS011;17651;52.262;10.498;2023-04-15T07:12:27;14.75;;;7.45;;
30970;SDS011;17651;52.262;10.498;2023-04-15T07:14:38;11.27;;;7.55;;
30970;SDS011;17651;52.262;10.498;2023-04-15T07:16:49;12.43;;;7.35;;
30970;SDS011;17651;52.262;10.498;2023-04-15T07:19:00;11.68;;;8.07;;
30970;SDS011;17651;52.262;10.498;2023-04-15T07:21:11;10.45;;;7.35;;
30970;SDS011;17651;52.262;10.498;2023-04-15T07:23:22;10.32;;;7.40;;
30970;SDS011;17651;52.262;10.498;2023-04-15T07:25:33;10.23;;;7.32;;
30970;SDS011;17651;52.262;10.498;2023-04-15T07:27:45;10.10;;;6.68;;
30970;SDS011;17651;52.262;10.498;2023-04-15T07:29:56;10.27;;;7.53;;
30970;SDS011;17651;52.262;10.498;2023-04-15T07:32:07;9.95;;;7.38;;
30970;SDS011;17651;52.262;10.498;2023-04-15T07:34:19;11.90;;;7.47;;
30970;SDS011;17651;52.262;10.498;2023-04-15T07:36:30;9.52;;;6.47;;
30970;SDS011;17651;52.262;10.498;2023-04-15T07:38:41;10.10;;;6.50;;
30970;SDS011;17651;52.262;10.498;2023-04-15T07:40:53;8.85;;;6.65;;
30970;SDS011;17651;52.262;10.498;2023-04-15T07:43:04;9.75;;;6.43;;
30970;SDS011;17651;52.262;10.498;2023-04-15T07:45:15;9.88;;;6.40;;
30970;SDS011;17651;52.262;10.498;2023-04-15T07:47:26;10.00;;;6.85;;
30970;SDS011;17651;52.262;10.498;2023-04-15T07:49:37;9.60;;;6.57;;
30970;SDS011;17651;52.262;10.498;2023-04-15T07:51:48;9.15;;;6.88;;
30970;SDS011;17651;52.262;10.498;2023-04-15T07:54:00;7.57;;;5.85;;
30970;SDS011;17651;52.262;10.498;2023-04-15T07:56:12;7.30;;;5.78;;
30970;SDS011;17651;52.262;10.498;2023-04-15T07:58:23;9.13;;;7.07;;
30970;SDS011;17651;52.262;10.498;2023-04-15T08:00:34;7.43;;;5.68;;
30970;SDS011;17651;52.262;10.498;2023-04-15T08:02:47;7.90;;;6.00;;
30970;SDS011;17651;52.262;10.498;2023-04-15T08:04:58;9.02;;;6.40;;
30970;SDS011;17651;52.262;10.498;2023-04-15T08:07:12;10.02;;;6.43;;
30970;SDS011;17651;52.262;10.498;2023-04-15T08:09:23;8.02;;;5.88;;
30970;SDS011;17651;52.262;10.498;2023-04-15T08:11:34;8.82;;;5.82;;
30970;SDS011;17651;52.262;10.498;2023-04-15T08:13:46;7.95;;;5.65;;
30970;SDS011;17651;52.262;10.498;2023-04-15T08:16:16;7.97;;;6.00;;
30970;SDS011;17651;52.262;10.498;2023-04-15T08:18:30;6.57;;;5.07;;
30970;SDS011;17651;52.262;10.498;2023-04-15T08:20:41;6.90;;;5.07;;
30970;SDS011;17651;52.262;10.498;2023-04-15T08:22:52;6.35;;;5.05;;
30970;SDS011;17651;52.262;10.498;2023-04-15T08:25:03;8.10;;;4.88;;
30970;SDS011;17651;52.262;10.498;2023-04-15T08:27:14;7.30;;;5.07;;
30970;SDS011;17651;52.262;10.498;2023-04-15T08:29:26;7.65;;;5.75;;
30970;SDS011;17651;52.262;10.498;2023-04-15T08:31:37;5.95;;;4.63;;
30970;SDS011;17651;52.262;10.498;2023-04-15T08:33:48;5.82;;;5.00;;
30970;SDS011;17651;52.262;10.498;2023-04-15T08:36:02;6.05;;;5.03;;
30970;SDS011;17651;52.262;10.498;2023-04-15T08:38:13;7.07;;;4.82;;
30970;SDS011;17651;52.262;10.498;2023-04-15T08:40:25;7.18;;;5.30;;
30970;SDS011;17651;52.262;10.498;2023-04-15T08:42:43;6.43;;;4.80;;
30970;SDS011;17651;52.262;10.498;2023-04-15T08:44:54;6.80;;;4.80;;
30970;SDS011;17651;52.262;10.498;2023-04-15T08:47:06;5.88;;;4.68;;
30970;SDS011;17651;52.262;10.498;2023-04-15T08:49:18;7.72;;;5.78;;
30970;SDS011;17651;52.262;10.498;2023-04-15T08:51:31;7.25;;;5.43;;
30970;SDS011;17651;52.262;10.498;2023-04-15T08:53:43;8.07;;;5.70;;
30970;SDS011;17651;52.262;10.498;2023-04-15T08:55:56;8.32;;;5.40;;
30970;SDS011;17651;52.262;10.498;2023-04-15T08:58:07;8.85;;;6.70;;
30970;SDS011;17651;52.262;10.498;2023-04-15T09:00:20;9.02;;;6.28;;
30970;SDS011;17651;52.262;10.498;2023-04-15T09:02:32;9.05;;;6.40;;
30970;SDS011;17651;52.262;10.498;2023-04-15T09:04:43;8.57;;;5.65;;
30970;SDS011;17651;52.262;10.498;2023-04-15T09:06:54;9.20;;;6.07;;
30970;SDS011;17651;52.262;10.498;2023-04-15T09:09:06;8.65;;;5.68;;
30970;SDS011;17651;52.262;10.498;2023-04-15T09:11:17;10.35;;;6.68;;
30970;SDS011;17651;52.262;10.498;2023-04-15T09:13:29;9.65;;;6.95;;
30970;SDS011;17651;52.262;10.498;2023-04-15T09:15:40;10.20;;;6.85;;
30970;SDS011;17651;52.262;10.498;2023-04-15T09:17:52;10.75;;;7.03;;
30970;SDS011;17651;52.262;10.498;2023-04-15T09:20:06;10.75;;;7.05;;
30970;SDS011;17651;52.262;10.498;2023-04-15T09:22:19;10.35;;;7.25;;
30970;SDS011;17651;52.262;10.498;2023-04-15T09:24:37;12.05;;;8.15;;
30970;SDS011;17651;52.262;10.498;2023-04-15T09:26:53;13.13;;;8.90;;
30970;SDS011;17651;52.262;10.498;2023-04-15T09:29:05;14.75;;;9.02;;
30970;SDS011;17651;52.262;10.498;2023-04-15T09:31:16;16.00;;;8.57;;
30970;SDS011;17651;52.262;10.498;2023-04-15T09:33:28;13.90;;;8.32;;
30970;SDS011;17651;52.262;10.498;2023-04-15T09:35:40;12.82;;;7.93;;
30970;SDS011;17651;52.262;10.498;2023-04-15T09:37:51;12.80;;;8.30;;
30970;SDS011;17651;52.262;10.498;2023-04-15T09:40:03;18.13;;;9.07;;
30970;SDS011;17651;52.262;10.498;2023-04-15T09:42:14;19.63;;;12.23;;
30970;SDS011;17651;52.262;10.498;2023-04-15T09:44:26;22.40;;;12.98;;
30970;SDS011;17651;52.262;10.498;2023-04-15T09:46:44;21.40;;;13.00;;
30970;SDS011;17651;52.262;10.498;2023-04-15T09:49:07;25.70;;;14.30;;
30970;SDS011;17651;52.262;10.498;2023-04-15T09:51:19;19.65;;;11.98;;
30970;SDS011;17651;52.262;10.498;2023-04-15T09:53:43;23.85;;;14.55;;
30970;SDS011;17651;52.262;10.498;2023-04-15T09:55:55;22.85;;;13.50;;
30970;SDS011;17651;52.262;10.498;2023-04-15T09:58:16;22.95;;;13.63;;
30970;SDS011;17651;52.262;10.498;2023-04-15T10:00:27;23.45;;;13.05;;
30970;SDS011;17651;52.262;10.498;2023-04-15T10:02:39;35.65;;;20.80;;
30970;SDS011;17651;52.262;10.498;2023-04-15T10:04:51;49.35;;;27.33;;
30970;SDS011;17651;52.262;10.498;2023-04-15T10:07:03;24.30;;;15.55;;
30970;SDS011;17651;52.262;10.498;2023-04-15T10:09:15;23.75;;;13.77;;
30970;SDS011;17651;52.262;10.498;2023-04-15T10:11:27;23.08;;;13.77;;
30970;SDS011;17651;52.262;10.498;2023-04-15T10:13:38;24.48;;;15.13;;
30970;SDS011;17651;52.262;10.498;2023-04-15T10:16:03;24.80;;;13.32;;
30970;SDS011;17651;52.262;10.498;2023-04-15T10:18:15;25.88;;;14.57;;
30970;SDS011;17651;52.262;10.498;2023-04-15T10:20:28;22.48;;;13.43;;
30970;SDS011;17651;52.262;10.498;2023-04-15T10:22:40;62.45;;;38.58;;
30970;SDS011;17651;52.262;10.498;2023-04-15T10:24:52;54.45;;;31.08;;
30970;SDS011;17651;52.262;10.498;2023-04-15T10:27:03;24.08;;;14.30;;
30970;SDS011;17651;52.262;10.498;2023-04-15T10:29:15;25.60;;;13.95;;
30970;SDS011;17651;52.262;10.498;2023-04-15T10:31:27;24.45;;;14.00;;
30970;SDS011;17651;52.262;10.498;2023-04-15T10:33:38;18.25;;;11.30;;
30970;SDS011;17651;52.262;10.498;2023-04-15T10:35:50;21.83;;;13.68;;
30970;SDS011;17651;52.262;10.498;2023-04-15T10:38:01;20.40;;;12.82;;
30970;SDS011;17651;52.262;10.498;2023-04-15T10:40:22;28.65;;;16.33;;
30970;SDS011;17651;52.262;10.498;2023-04-15T10:42:35;22.83;;;13.60;;
30970;SDS011;17651;52.262;10.498;2023-04-15T10:44:50;25.52;;;14.65;;
30970;SDS011;17651;52.262;10.498;2023-04-15T10:47:03;26.52;;;16.77;;
30970;SDS011;17651;52.262;10.498;2023-04-15T10:49:23;47.28;;;28.83;;
30970;SDS011;17651;52.262;10.498;2023-04-15T10:53:45;47.00;;;19.80;;
30970;SDS011;17651;52.262;10.498;2023-04-15T10:55:57;54.92;;;20.30;;
30970;SDS011;17651;52.262;10.498;2023-04-15T10:58:15;47.38;;;17.88;;
30970;SDS011;17651;52.262;10.498;2023-04-15T11:00:30;34.75;;;17.02;;
30970;SDS011;17651;52.262;10.498;2023-04-15T11:02:45;31.80;;;18.67;;
30970;SDS011;17651;52.262;10.498;2023-04-15T11:04:57;27.88;;;16.80;;
30970;SDS011;17651;52.262;10.498;2023-04-15T11:07:08;26.80;;;16.95;;
30970;SDS011;17651;52.262;10.498;2023-04-15T11:09:29;27.42;;;17.20;;
30970;SDS011;17651;52.262;10.498;2023-04-15T11:16:22;28.95;;;17.15;;
30970;SDS011;17651;52.262;10.498;2023-04-15T11:18:34;27.92;;;16.52;;
30970;SDS011;17651;52.262;10.498;2023-04-15T11:20:46;27.75;;;16.88;;
30970;SDS011;17651;52.262;10.498;2023-04-15T11:22:57;30.15;;;17.85;;
30970;SDS011;17651;52.262;10.498;2023-04-15T11:25:08;30.45;;;18.50;;
30970;SDS011;17651;52.262;10.498;2023-04-15T11:27:20;33.08;;;19.50;;
30970;SDS011;17651;52.262;10.498;2023-04-15T11:29:31;33.10;;;19.23;;
30970;SDS011;17651;52.262;10.498;2023-04-15T11:31:45;31.55;;;18.25;;
30970;SDS011;17651;52.262;10.498;2023-04-15T11:33:58;31.05;;;19.10;;
30970;SDS011;17651;52.262;10.498;2023-04-15T11:36:11;30.30;;;18.63;;
30970;SDS011;17651;52.262;10.498;2023-04-15T11:38:22;32.45;;;18.05;;
30970;SDS011;17651;52.262;10.498;2023-04-15T11:40:34;29.52;;;18.50;;
30970;SDS011;17651;52.262;10.498;2023-04-15T11:42:45;33.55;;;18.67;;
30970;SDS011;17651;52.262;10.498;2023-04-15T11:45:29;34.13;;;19.02;;
30970;SDS011;17651;52.262;10.498;2023-04-15T11:47:35;33.55;;;19.35;;
30970;SDS011;17651;52.262;10.498;2023-04-15T11:49:46;37.05;;;21.38;;
30970;SDS011;17651;52.262;10.498;2023-04-15T11:51:57;36.13;;;19.70;;
30970;SDS011;17651;52.262;10.498;2023-04-15T11:54:09;34.65;;;20.55;;
30970;SDS011;17651;52.262;10.498;2023-04-15T11:56:28;27.97;;;15.13;;
30970;SDS011;17651;52.262;10.498;2023-04-15T11:58:39;36.72;;;21.60;;
30970;SDS011;17651;52.262;10.498;2023-04-15T12:00:52;36.28;;;21.35;;
30970;SDS011;17651;52.262;10.498;2023-04-15T12:03:10;39.55;;;22.02;;
30970;SDS011;17651;52.262;10.498;2023-04-15T12:05:21;36.25;;;20.08;;
30970;SDS011;17651;52.262;10.498;2023-04-15T12:07:32;39.85;;;21.67;;
30970;SDS011;17651;52.262;10.498;2023-04-15T12:09:43;35.55;;;20.98;;
30970;SDS011;17651;52.262;10.498;2023-04-15T12:12:04;37.95;;;21.65;;
30970;SDS011;17651;52.262;10.498;2023-04-15T12:14:25;42.00;;;22.23;;
30970;SDS011;17651;52.262;10.498;2023-04-15T12:16:38;42.50;;;22.15;;
30970;SDS011;17651;52.262;10.498;2023-04-15T12:18:54;39.88;;;21.85;;
30970;SDS011;17651;52.262;10.498;2023-04-15T12:21:09;40.63;;;21.85;;
30970;SDS011;17651;52.262;10.498;2023-04-15T12:23:20;37.28;;;20.60;;
30970;SDS011;17651;52.262;10.498;2023-04-15T12:25:35;42.35;;;22.20;;
30970;SDS011;17651;52.262;10.498;2023-04-15T12:27:50;43.53;;;21.73;;
30970;SDS011;17651;52.262;10.498;2023-04-15T12:30:05;40.42;;;21.45;;
30970;SDS011;17651;52.262;10.498;2023-04-15T12:32:17;61.05;;;31.38;;
30970;SDS011;17651;52.262;10.498;2023-04-15T12:34:41;38.70;;;21.60;;
30970;SDS011;17651;52.262;10.498;2023-04-15T12:36:53;42.28;;;21.85;;
30970;SDS011;17651;52.262;10.498;2023-04-15T12:39:04;46.33;;;23.17;;
30970;SDS011;17651;52.262;10.498;2023-04-15T12:41:16;42.30;;;22.02;;
30970;SDS011;17651;52.262;10.498;2023-04-15T12:43:27;43.15;;;22.30;;
30970;SDS011;17651;52.262;10.498;2023-04-15T12:45:38;43.67;;;24.02;;
30970;SDS011;17651;52.262;10.498;2023-04-15T12:47:49;40.88;;;22.02;;
30970;SDS011;17651;52.262;10.498;2023-04-15T12:50:00;38.58;;;21.40;;
30970;SDS011;17651;52.262;10.498;2023-04-15T12:52:11;39.25;;;22.50;;
30970;SDS011;17651;52.262;10.498;2023-04-15T12:54:22;40.92;;;21.70;;
30970;SDS011;17651;52.262;10.498;2023-04-15T12:56:33;38.97;;;20.30;;
30970;SDS011;17651;52.262;10.498;2023-04-15T12:58:44;42.60;;;24.92;;